sensor_id;sensor_type;location;lat;lon;timestamp;P1;durP1;ratioP1;P2;durP2;ratioP2
17955;SDS011;27666;51.498;11.966;2023-06-10T00:01:42;7.47;;;4.80;;
17955;SDS011;27666;51.498;11.966;2023-06-10T00:04:33;7.63;;;4.40;;
17955;SDS011;27666;51.498;11.966;2023-06-10T00:07:21;6.65;;;4.20;;
17955;SDS011;27666;51.498;11.966;2023-06-10T00:10:07;7.68;;;4.55;;
17955;SDS011;27666;51.498;11.966;2023-06-10T00:12:55;6.80;;;4.00;;
17955;SDS011;27666;51.498;11.966;2023-06-10T00:15:41;7.70;;;3.80;;
17955;SDS011;27666;51.498;11.966;2023-06-10T00:18:27;7.53;;;4.13;;
17955;SDS011;27666;51.498;11.966;2023-06-10T00:21:17;6.00;;;4.10;;
17955;SDS011;27666;51.498;11.966;2023-06-10T00:24:04;5.72;;;4.00;;
17955;SDS011;27666;51.498;11.966;2023-06-10T00:26:55;7.22;;;4.40;;
17955;SDS011;27666;51.498;11.966;2023-06-10T00:29:42;9.02;;;4.85;;
17955;SDS011;27666;51.498;11.966;2023-06-10T00:32:28;6.20;;;4.20;;
17955;SDS011;27666;51.498;11.966;2023-06-10T00:35:15;7.43;;;3.80;;
17955;SDS011;27666;51.498;11.966;2023-06-10T00:38:03;7.93;;;4.00;;
17955;SDS011;27666;51.498;11.966;2023-06-10T00:40:49;7.07;;;4.10;;
17955;SDS011;27666;51.498;11.966;2023-06-10T00:43:37;8.68;;;4.32;;
17955;SDS011;27666;51.498;11.966;2023-06-10T00:46:24;7.15;;;4.03;;
17955;SDS011;27666;51.498;11.966;2023-06-10T00:49:12;5.30;;;4.22;;
17955;SDS011;27666;51.498;11.966;2023-06-10T00:51:58;7.80;;;4.05;;
17955;SDS011;27666;51.498;11.966;2023-06-10T00:54:46;6.88;;;3.97;;
17955;SDS011;27666;51.498;11.966;2023-06-10T00:57:33;7.55;;;4.40;;
17955;SDS011;27666;51.498;11.966;2023-06-10T01:00:19;6.05;;;4.03;;
17955;SDS011;27666;51.498;11.966;2023-06-10T01:03:06;9.50;;;3.95;;
17955;SDS011;27666;51.498;11.966;2023-06-10T01:05:57;6.25;;;4.13;;
17955;SDS011;27666;51.498;11.966;2023-06-10T01:08:50;7.03;;;4.78;;
17955;SDS011;27666;51.498;11.966;2023-06-10T01:11:45;5.82;;;4.18;;
17955;SDS011;27666;51.498;11.966;2023-06-10T01:14:37;6.70;;;4.70;;
17955;SDS011;27666;51.498;11.966;2023-06-10T01:17:30;6.30;;;4.22;;
17955;SDS011;27666;51.498;11.966;2023-06-10T01:20:17;7.38;;;4.63;;
17955;SDS011;27666;51.498;11.966;2023-06-10T01:23:05;5.75;;;4.68;;
17955;SDS011;27666;51.498;11.966;2023-06-10T01:25:54;6.50;;;4.82;;
17955;SDS011;27666;51.498;11.966;2023-06-10T01:28:47;7.97;;;4.75;;
17955;SDS011;27666;51.498;11.966;2023-06-10T01:31:41;7.65;;;4.60;;
17955;SDS011;27666;51.498;11.966;2023-06-10T01:34:33;7.78;;;4.53;;
17955;SDS011;27666;51.498;11.966;2023-06-10T01:37:22;10.18;;;5.25;;
17955;SDS011;27666;51.498;11.966;2023-06-10T01:40:12;6.57;;;4.45;;
17955;SDS011;27666;51.498;11.966;2023-06-10T01:42:59;9.40;;;5.07;;
17955;SDS011;27666;51.498;11.966;2023-06-10T01:45:47;9.18;;;4.53;;
17955;SDS011;27666;51.498;11.966;2023-06-10T01:48:34;6.38;;;4.40;;
17955;SDS011;27666;51.498;11.966;2023-06-10T01:51:21;11.95;;;4.95;;
17955;SDS011;27666;51.498;11.966;2023-06-10T01:54:07;6.75;;;4.60;;
17955;SDS011;27666;51.498;11.966;2023-06-10T01:56:56;7.70;;;4.53;;
17955;SDS011;27666;51.498;11.966;2023-06-10T01:59:45;8.52;;;4.68;;
17955;SDS011;27666;51.498;11.966;2023-06-10T02:02:32;9.30;;;4.95;;
17955;SDS011;27666;51.498;11.966;2023-06-10T02:05:18;7.72;;;5.10;;
17955;SDS011;27666;51.498;11.966;2023-06-10T02:08:04;9.85;;;5.53;;
17955;SDS011;27666;51.498;11.966;2023-06-10T02:10:51;11.13;;;4.85;;
17955;SDS011;27666;51.498;11.966;2023-06-10T02:13:39;12.20;;;5.65;;
17955;SDS011;27666;51.498;11.966;2023-06-10T02:16:25;6.13;;;5.20;;
17955;SDS011;27666;51.498;11.966;2023-06-10T02:19:11;10.20;;;5.07;;
17955;SDS011;27666;51.498;11.966;2023-06-10T02:21:58;7.32;;;5.07;;
17955;SDS011;27666;51.498;11.966;2023-06-10T02:24:45;9.77;;;4.97;;
17955;SDS011;27666;51.498;11.966;2023-06-10T02:27:31;8.88;;;4.70;;
17955;SDS011;27666;51.498;11.966;2023-06-10T02:30:19;8.60;;;5.43;;
17955;SDS011;27666;51.498;11.966;2023-06-10T02:33:06;9.18;;;5.35;;
17955;SDS011;27666;51.498;11.966;2023-06-10T02:35:54;6.35;;;5.38;;
17955;SDS011;27666;51.498;11.966;2023-06-10T02:38:41;9.38;;;5.03;;
17955;SDS011;27666;51.498;11.966;2023-06-10T02:41:28;10.18;;;5.40;;
17955;SDS011;27666;51.498;11.966;2023-06-10T02:44:14;13.82;;;5.57;;
17955;SDS011;27666;51.498;11.966;2023-06-10T02:47:02;9.40;;;5.10;;
17955;SDS011;27666;51.498;11.966;2023-06-10T02:49:48;6.75;;;4.80;;
17955;SDS011;27666;51.498;11.966;2023-06-10T02:52:35;9.30;;;5.50;;
17955;SDS011;27666;51.498;11.966;2023-06-10T02:55:21;10.52;;;5.88;;
17955;SDS011;27666;51.498;11.966;2023-06-10T02:58:11;11.48;;;5.50;;
17955;SDS011;27666;51.498;11.966;2023-06-10T03:00:58;11.10;;;5.80;;
17955;SDS011;27666;51.498;11.966;2023-06-10T03:03:46;10.20;;;5.63;;
17955;SDS011;27666;51.498;11.966;2023-06-10T03:06:35;7.60;;;5.00;;
17955;SDS011;27666;51.498;11.966;2023-06-10T03:09:23;9.13;;;5.45;;
17955;SDS011;27666;51.498;11.966;2023-06-10T03:12:10;7.18;;;5.85;;
17955;SDS011;27666;51.498;11.966;2023-06-10T03:14:56;9.88;;;6.18;;
17955;SDS011;27666;51.498;11.966;2023-06-10T03:17:43;10.00;;;5.70;;
17955;SDS011;27666;51.498;11.966;2023-06-10T03:20:31;11.77;;;5.72;;
17955;SDS011;27666;51.498;11.966;2023-06-10T03:23:22;8.82;;;6.00;;
17955;SDS011;27666;51.498;11.966;2023-06-10T03:26:09;11.95;;;5.88;;
17955;SDS011;27666;51.498;11.966;2023-06-10T03:28:57;8.13;;;5.63;;
17955;SDS011;27666;51.498;11.966;2023-06-10T03:31:44;10.10;;;6.30;;
17955;SDS011;27666;51.498;11.966;2023-06-10T03:34:30;8.48;;;5.20;;
17955;SDS011;27666;51.498;11.966;2023-06-10T03:37:18;15.55;;;5.88;;
17955;SDS011;27666;51.498;11.966;2023-06-10T03:40:07;10.30;;;5.82;;
17955;SDS011;27666;51.498;11.966;2023-06-10T03:42:54;11.40;;;6.25;;
17955;SDS011;27666;51.498;11.966;2023-06-10T03:45:41;10.38;;;5.40;;
17955;SDS011;27666;51.498;11.966;2023-06-10T03:48:30;11.48;;;5.65;;
17955;SDS011;27666;51.498;11.966;2023-06-10T03:51:16;10.20;;;5.72;;
17955;SDS011;27666;51.498;11.966;2023-06-10T03:54:04;12.98;;;6.03;;
17955;SDS011;27666;51.498;11.966;2023-06-10T03:56:51;11.07;;;5.05;;
17955;SDS011;27666;51.498;11.966;2023-06-10T03:59:37;11.75;;;5.60;;
17955;SDS011;27666;51.498;11.966;2023-06-10T04:02:24;8.10;;;5.80;;
17955;SDS011;27666;51.498;11.966;2023-06-10T04:05:11;9.88;;;6.30;;
17955;SDS011;27666;51.498;11.966;2023-06-10T04:07:58;9.15;;;5.40;;
17955;SDS011;27666;51.498;11.966;2023-06-10T04:10:45;10.75;;;5.43;;
17955;SDS011;27666;51.498;11.966;2023-06-10T04:13:32;6.97;;;5.50;;
17955;SDS011;27666;51.498;11.966;2023-06-10T04:16:18;10.32;;;5.68;;
17955;SDS011;27666;51.498;11.966;2023-06-10T04:19:05;10.52;;;5.72;;
17955;SDS011;27666;51.498;11.966;2023-06-10T04:21:52;15.30;;;5.82;;
17955;SDS011;27666;51.498;11.966;2023-06-10T04:24:39;9.35;;;5.78;;
17955;SDS011;27666;51.498;11.966;2023-06-10T04:27:27;7.53;;;5.10;;
17955;SDS011;27666;51.498;11.966;2023-06-10T04:30:14;11.68;;;6.18;;
17955;SDS011;27666;51.498;11.966;2023-06-10T04:33:02;10.88;;;5.85;;
17955;SDS011;27666;51.498;11.966;2023-06-10T04:35:51;8.82;;;5.88;;
17955;SDS011;27666;51.498;11.966;2023-06-10T04:38:38;9.35;;;5.07;;
17955;SDS011;27666;51.498;11.966;2023-06-10T04:41:25;12.20;;;6.20;;
17955;SDS011;27666;51.498;11.966;2023-06-10T04:44:13;8.38;;;5.18;;
17955;SDS011;27666;51.498;11.966;2023-06-10T04:46:59;14.93;;;6.18;;
17955;SDS011;27666;51.498;11.966;2023-06-10T04:49:47;11.10;;;5.38;;
17955;SDS011;27666;51.498;11.966;2023-06-10T04:52:33;7.82;;;5.30;;
17955;SDS011;27666;51.498;11.966;2023-06-10T04:55:19;10.60;;;5.72;;
17955;SDS011;27666;51.498;11.966;2023-06-10T04:58:06;9.05;;;5.55;;
17955;SDS011;27666;51.498;11.966;2023-06-10T05:00:53;13.70;;;5.22;;
17955;SDS011;27666;51.498;11.966;2023-06-10T05:03:40;9.43;;;5.07;;
17955;SDS011;27666;51.498;11.966;2023-06-10T05:06:28;10.40;;;5.32;;
17955;SDS011;27666;51.498;11.966;2023-06-10T05:09:15;12.30;;;5.35;;
17955;SDS011;27666;51.498;11.966;2023-06-10T05:12:02;12.00;;;6.85;;
17955;SDS011;27666;51.498;11.966;2023-06-10T05:14:48;11.65;;;5.75;;
17955;SDS011;27666;51.498;11.966;2023-06-10T05:17:36;14.60;;;6.25;;
17955;SDS011;27666;51.498;11.966;2023-06-10T05:20:23;8.10;;;5.45;;
17955;SDS011;27666;51.498;11.966;2023-06-10T05:23:10;8.75;;;5.40;;
17955;SDS011;27666;51.498;11.966;2023-06-10T05:25:56;8.43;;;5.90;;
17955;SDS011;27666;51.498;11.966;2023-06-10T05:28:43;9.68;;;5.65;;
17955;SDS011;27666;51.498;11.966;2023-06-10T05:31:29;8.55;;;5.00;;
17955;SDS011;27666;51.498;11.966;2023-06-10T05:34:18;9.13;;;5.82;;
17955;SDS011;27666;51.498;11.966;2023-06-10T05:37:04;6.65;;;5.03;;
17955;SDS011;27666;51.498;11.966;2023-06-10T05:39:53;9.05;;;5.00;;
17955;SDS011;27666;51.498;11.966;2023-06-10T05:42:40;10.13;;;5.63;;
17955;SDS011;27666;51.498;11.966;2023-06-10T05:45:26;11.43;;;4.63;;
17955;SDS011;27666;51.498;11.966;2023-06-10T05:48:13;5.68;;;4.95;;
17955;SDS011;27666;51.498;11.966;2023-06-10T05:51:01;8.13;;;4.88;;
17955;SDS011;27666;51.498;11.966;2023-06-10T05:53:47;8.50;;;5.18;;
17955;SDS011;27666;51.498;11.966;2023-06-10T05:56:34;7.35;;;4.97;;
17955;SDS011;27666;51.498;11.966;2023-06-10T05:59:20;10.95;;;5.30;;
17955;SDS011;27666;51.498;11.966;2023-06-10T06:02:07;5.57;;;4.57;;
17955;SDS011;27666;51.498;11.966;2023-06-10T06:04:54;9.45;;;5.75;;
17955;SDS011;27666;51.498;11.966;2023-06-10T06:07:42;6.72;;;5.40;;
17955;SDS011;27666;51.498;11.966;2023-06-10T06:10:28;7.78;;;4.82;;
17955;SDS011;27666;51.498;11.966;2023-06-10T06:13:15;8.35;;;5.45;;
17955;SDS011;27666;51.498;11.966;2023-06-10T06:16:01;6.22;;;4.90;;
17955;SDS011;27666;51.498;11.966;2023-06-10T06:18:48;10.30;;;5.95;;
17955;SDS011;27666;51.498;11.966;2023-06-10T06:21:34;7.78;;;5.43;;
17955;SDS011;27666;51.498;11.966;2023-06-10T06:24:22;9.63;;;5.35;;
17955;SDS011;27666;51.498;11.966;2023-06-10T06:27:09;7.55;;;5.38;;
17955;SDS011;27666;51.498;11.966;2023-06-10T06:29:56;8.63;;;5.32;;
17955;SDS011;27666;51.498;11.966;2023-06-10T06:32:43;6.80;;;5.20;;
17955;SDS011;27666;51.498;11.966;2023-06-10T06:35:30;10.32;;;5.60;;
17955;SDS011;27666;51.498;11.966;2023-06-10T06:38:17;9.18;;;5.88;;
17955;SDS011;27666;51.498;11.966;2023-06-10T06:41:05;10.18;;;5.78;;
17955;SDS011;27666;51.498;11.966;2023-06-10T06:43:51;10.48;;;5.75;;
17955;SDS011;27666;51.498;11.966;2023-06-10T06:46:38;11.75;;;6.30;;
17955;SDS011;27666;51.498;11.966;2023-06-10T06:49:24;9.57;;;6.00;;
17955;SDS011;27666;51.498;11.966;2023-06-10T06:52:10;8.75;;;5.85;;
17955;SDS011;27666;51.498;11.966;2023-06-10T06:54:57;9.63;;;5.80;;
17955;SDS011;27666;51.498;11.966;2023-06-10T06:57:45;9.02;;;5.80;;
17955;SDS011;27666;51.498;11.966;2023-06-10T07:00:31;20.38;;;6.43;;
17955;SDS011;27666;51.498;11.966;2023-06-10T07:03:18;8.35;;;5.70;;
17955;SDS011;27666;51.498;11.966;2023-06-10T07:06:04;10.50;;;6.10;;
17955;SDS011;27666;51.498;11.966;2023-06-10T07:08:50;10.23;;;6.28;;
17955;SDS011;27666;51.498;11.966;2023-06-10T07:11:37;15.77;;;6.80;;
17955;SDS011;27666;51.498;11.966;2023-06-10T07:14:25;7.32;;;5.22;;
17955;SDS011;27666;51.498;11.966;2023-06-10T07:17:12;7.78;;;5.13;;
17955;SDS011;27666;51.498;11.966;2023-06-10T07:19:58;11.05;;;6.40;;
17955;SDS011;27666;51.498;11.966;2023-06-10T07:22:45;12.45;;;6.47;;
17955;SDS011;27666;51.498;11.966;2023-06-10T07:25:31;8.13;;;6.38;;
17955;SDS011;27666;51.498;11.966;2023-06-10T07:28:17;8.55;;;5.75;;
17955;SDS011;27666;51.498;11.966;2023-06-10T07:31:06;10.20;;;6.45;;
17955;SDS011;27666;51.498;11.966;2023-06-10T07:33:53;10.68;;;6.75;;
17955;SDS011;27666;51.498;11.966;2023-06-10T07:36:39;9.68;;;5.95;;
17955;SDS011;27666;51.498;11.966;2023-06-10T07:39:26;9.00;;;6.30;;
17955;SDS011;27666;51.498;11.966;2023-06-10T07:42:12;9.40;;;5.93;;
17955;SDS011;27666;51.498;11.966;2023-06-10T07:44:58;8.85;;;5.90;;
17955;SDS011;27666;51.498;11.966;2023-06-10T07:47:46;10.60;;;6.45;;
17955;SDS011;27666;51.498;11.966;2023-06-10T07:50:33;9.60;;;6.53;;
17955;SDS011;27666;51.498;11.966;2023-06-10T07:53:20;10.05;;;7.07;;
17955;SDS011;27666;51.498;11.966;2023-06-10T07:56:06;10.07;;;6.75;;
17955;SDS011;27666;51.498;11.966;2023-06-10T07:58:53;11.23;;;7.13;;
17955;SDS011;27666;51.498;11.966;2023-06-10T08:01:40;8.15;;;6.75;;
17955;SDS011;27666;51.498;11.966;2023-06-10T08:04:29;12.27;;;6.30;;
17955;SDS011;27666;51.498;11.966;2023-06-10T08:07:16;9.80;;;7.53;;
17955;SDS011;27666;51.498;11.966;2023-06-10T08:10:05;11.23;;;6.78;;
17955;SDS011;27666;51.498;11.966;2023-06-10T08:12:53;10.25;;;6.38;;
17955;SDS011;27666;51.498;11.966;2023-06-10T08:15:39;9.20;;;6.43;;
17955;SDS011;27666;51.498;11.966;2023-06-10T08:18:25;8.63;;;6.68;;
17955;SDS011;27666;51.498;11.966;2023-06-10T08:21:13;14.43;;;7.35;;
17955;SDS011;27666;51.498;11.966;2023-06-10T08:24:00;16.08;;;7.60;;
17955;SDS011;27666;51.498;11.966;2023-06-10T08:26:46;11.07;;;7.65;;
17955;SDS011;27666;51.498;11.966;2023-06-10T08:29:32;14.27;;;7.50;;
17955;SDS011;27666;51.498;11.966;2023-06-10T08:32:19;9.93;;;7.55;;
17955;SDS011;27666;51.498;11.966;2023-06-10T08:35:05;14.18;;;7.15;;
17955;SDS011;27666;51.498;11.966;2023-06-10T08:37:54;15.35;;;8.30;;
17955;SDS011;27666;51.498;11.966;2023-06-10T08:40:40;12.90;;;8.82;;
17955;SDS011;27666;51.498;11.966;2023-06-10T08:43:29;10.60;;;7.63;;
17955;SDS011;27666;51.498;11.966;2023-06-10T08:46:22;17.10;;;7.38;;
17955;SDS011;27666;51.498;11.966;2023-06-10T08:49:08;9.63;;;7.68;;
17955;SDS011;27666;51.498;11.966;2023-06-10T08:51:56;9.35;;;6.70;;
17955;SDS011;27666;51.498;11.966;2023-06-10T08:54:48;9.13;;;7.43;;
17955;SDS011;27666;51.498;11.966;2023-06-10T08:57:48;13.57;;;7.90;;
17955;SDS011;27666;51.498;11.966;2023-06-10T09:00:35;9.73;;;7.22;;
17955;SDS011;27666;51.498;11.966;2023-06-10T09:03:21;12.63;;;8.35;;
17955;SDS011;27666;51.498;11.966;2023-06-10T09:06:09;12.20;;;8.15;;
17955;SDS011;27666;51.498;11.966;2023-06-10T09:08:57;8.02;;;7.07;;
17955;SDS011;27666;51.498;11.966;2023-06-10T09:11:48;8.30;;;7.38;;
17955;SDS011;27666;51.498;11.966;2023-06-10T09:14:35;9.27;;;7.32;;
17955;SDS011;27666;51.498;11.966;2023-06-10T09:17:22;9.90;;;7.43;;
17955;SDS011;27666;51.498;11.966;2023-06-10T09:20:09;10.70;;;7.15;;
17955;SDS011;27666;51.498;11.966;2023-06-10T09:22:57;14.70;;;8.07;;
17955;SDS011;27666;51.498;11.966;2023-06-10T09:25:44;11.50;;;7.10;;
17955;SDS011;27666;51.498;11.966;2023-06-10T09:28:32;9.05;;;7.65;;
17955;SDS011;27666;51.498;11.966;2023-06-10T09:31:18;12.20;;;7.60;;
17955;SDS011;27666;51.498;11.966;2023-06-10T09:34:07;9.35;;;7.38;;
17955;SDS011;27666;51.498;11.966;2023-06-10T09:36:56;10.25;;;6.93;;
17955;SDS011;27666;51.498;11.966;2023-06-10T09:39:43;8.82;;;6.50;;
17955;SDS011;27666;51.498;11.966;2023-06-10T09:42:31;11.40;;;7.78;;
17955;SDS011;27666;51.498;11.966;2023-06-10T09:45:20;11.20;;;7.82;;
17955;SDS011;27666;51.498;11.966;2023-06-10T09:48:07;10.65;;;8.07;;
17955;SDS011;27666;51.498;11.966;2023-06-10T09:50:54;10.40;;;7.00;;
17955;SDS011;27666;51.498;11.966;2023-06-10T09:53:40;8.88;;;7.55;;
17955;SDS011;27666;51.498;11.966;2023-06-10T09:56:32;9.73;;;7.25;;
17955;SDS011;27666;51.498;11.966;2023-06-10T09:59:27;12.10;;;7.75;;
17955;SDS011;27666;51.498;11.966;2023-06-10T10:02:16;9.05;;;6.97;;
17955;SDS011;27666;51.498;11.966;2023-06-10T10:05:04;8.98;;;7.32;;
17955;SDS011;27666;51.498;11.966;2023-06-10T10:07:52;11.32;;;7.32;;
17955;SDS011;27666;51.498;11.966;2023-06-10T10:10:41;9.40;;;7.60;;
17955;SDS011;27666;51.498;11.966;2023-06-10T10:13:28;9.30;;;7.18;;
17955;SDS011;27666;51.498;11.966;2023-06-10T10:16:19;9.10;;;7.13;;
17955;SDS011;27666;51.498;11.966;2023-06-10T10:19:10;10.18;;;7.40;;
17955;SDS011;27666;51.498;11.966;2023-06-10T10:22:03;13.02;;;7.75;;
17955;SDS011;27666;51.498;11.966;2023-06-10T10:24:56;8.88;;;7.32;;
17955;SDS011;27666;51.498;11.966;2023-06-10T10:27:43;9.90;;;7.72;;
17955;SDS011;27666;51.498;11.966;2023-06-10T10:30:34;12.80;;;7.68;;
17955;SDS011;27666;51.498;11.966;2023-06-10T10:33:28;8.75;;;7.03;;
17955;SDS011;27666;51.498;11.966;2023-06-10T10:36:20;9.82;;;7.22;;
17955;SDS011;27666;51.498;11.966;2023-06-10T10:39:06;10.52;;;7.15;;
17955;SDS011;27666;51.498;11.966;2023-06-10T10:41:53;8.30;;;6.60;;
17955;SDS011;27666;51.498;11.966;2023-06-10T10:44:44;12.63;;;7.35;;
17955;SDS011;27666;51.498;11.966;2023-06-10T10:47:32;8.73;;;6.78;;
17955;SDS011;27666;51.498;11.966;2023-06-10T10:50:20;9.38;;;7.15;;
17955;SDS011;27666;51.498;11.966;2023-06-10T10:53:09;12.10;;;7.55;;
17955;SDS011;27666;51.498;11.966;2023-06-10T10:55:58;12.98;;;7.25;;
17955;SDS011;27666;51.498;11.966;2023-06-10T11:01:50;9.98;;;7.80;;
17955;SDS011;27666;51.498;11.966;2023-06-10T11:04:37;9.05;;;7.10;;
17955;SDS011;27666;51.498;11.966;2023-06-10T11:07:31;8.38;;;6.97;;
17955;SDS011;27666;51.498;11.966;2023-06-10T11:10:20;8.05;;;6.85;;
17955;SDS011;27666;51.498;11.966;2023-06-10T11:13:18;10.07;;;7.15;;
17955;SDS011;27666;51.498;11.966;2023-06-10T11:16:06;9.88;;;7.10;;
17955;SDS011;27666;51.498;11.966;2023-06-10T11:18:56;9.65;;;7.63;;
17955;SDS011;27666;51.498;11.966;2023-06-10T11:21:58;9.82;;;7.30;;
17955;SDS011;27666;51.498;11.966;2023-06-10T11:24:48;10.30;;;8.00;;
17955;SDS011;27666;51.498;11.966;2023-06-10T11:27:37;9.80;;;7.97;;
17955;SDS011;27666;51.498;11.966;2023-06-10T11:30:26;9.30;;;7.45;;
17955;SDS011;27666;51.498;11.966;2023-06-10T11:33:14;10.25;;;7.50;;
17955;SDS011;27666;51.498;11.966;2023-06-10T11:36:03;12.55;;;8.13;;
17955;SDS011;27666;51.498;11.966;2023-06-10T11:38:53;8.95;;;7.57;;
17955;SDS011;27666;51.498;11.966;2023-06-10T11:41:41;8.65;;;7.75;;
17955;SDS011;27666;51.498;11.966;2023-06-10T11:44:29;9.82;;;7.78;;
17955;SDS011;27666;51.498;11.966;2023-06-10T11:47:18;10.45;;;7.10;;
17955;SDS011;27666;51.498;11.966;2023-06-10T11:50:07;9.32;;;7.57;;
17955;SDS011;27666;51.498;11.966;2023-06-10T11:52:53;8.00;;;7.20;;
17955;SDS011;27666;51.498;11.966;2023-06-10T11:55:41;9.95;;;7.18;;
17955;SDS011;27666;51.498;11.966;2023-06-10T11:58:28;10.10;;;7.55;;
17955;SDS011;27666;51.498;11.966;2023-06-10T12:01:20;9.65;;;7.82;;
17955;SDS011;27666;51.498;11.966;2023-06-10T12:04:14;10.32;;;8.07;;
17955;SDS011;27666;51.498;11.966;2023-06-10T12:07:03;11.30;;;7.97;;
17955;SDS011;27666;51.498;11.966;2023-06-10T12:09:58;8.93;;;7.70;;
17955;SDS011;27666;51.498;11.966;2023-06-10T12:13:05;9.98;;;7.60;;
17955;SDS011;27666;51.498;11.966;2023-06-10T12:15:52;10.73;;;7.70;;
17955;SDS011;27666;51.498;11.966;2023-06-10T12:18:41;9.57;;;7.78;;
17955;SDS011;27666;51.498;11.966;2023-06-10T12:21:29;12.18;;;8.00;;
17955;SDS011;27666;51.498;11.966;2023-06-10T12:24:16;8.35;;;7.53;;
17955;SDS011;27666;51.498;11.966;2023-06-10T12:27:02;10.00;;;8.25;;
17955;SDS011;27666;51.498;11.966;2023-06-10T12:29:50;9.68;;;7.75;;
17955;SDS011;27666;51.498;11.966;2023-06-10T12:32:39;9.88;;;7.68;;
17955;SDS011;27666;51.498;11.966;2023-06-10T12:35:30;10.70;;;8.48;;
17955;SDS011;27666;51.498;11.966;2023-06-10T12:38:21;10.60;;;7.63;;
17955;SDS011;27666;51.498;11.966;2023-06-10T12:41:09;8.35;;;7.35;;
17955;SDS011;27666;51.498;11.966;2023-06-10T12:43:57;9.77;;;7.38;;
17955;SDS011;27666;51.498;11.966;2023-06-10T12:46:43;8.90;;;8.00;;
17955;SDS011;27666;51.498;11.966;2023-06-10T12:49:30;9.07;;;7.93;;
17955;SDS011;27666;51.498;11.966;2023-06-10T12:52:18;11.18;;;7.88;;
17955;SDS011;27666;51.498;11.966;2023-06-10T12:55:04;8.95;;;7.47;;
17955;SDS011;27666;51.498;11.966;2023-06-10T12:57:52;8.65;;;7.72;;
17955;SDS011;27666;51.498;11.966;2023-06-10T13:00:38;10.30;;;8.45;;
17955;SDS011;27666;51.498;11.966;2023-06-10T13:03:26;10.20;;;7.90;;
17955;SDS011;27666;51.498;11.966;2023-06-10T13:06:13;9.75;;;8.05;;
17955;SDS011;27666;51.498;11.966;2023-06-10T13:09:00;11.73;;;8.23;;
17955;SDS011;27666;51.498;11.966;2023-06-10T13:11:47;8.93;;;7.90;;
17955;SDS011;27666;51.498;11.966;2023-06-10T13:14:33;8.70;;;7.38;;
17955;SDS011;27666;51.498;11.966;2023-06-10T13:17:22;8.35;;;7.55;;
17955;SDS011;27666;51.498;11.966;2023-06-10T13:20:09;10.35;;;7.80;;
17955;SDS011;27666;51.498;11.966;2023-06-10T13:22:56;10.05;;;8.35;;
17955;SDS011;27666;51.498;11.966;2023-06-10T13:25:44;9.13;;;8.23;;
17955;SDS011;27666;51.498;11.966;2023-06-10T13:28:31;9.90;;;7.45;;
17955;SDS011;27666;51.498;11.966;2023-06-10T13:31:19;8.43;;;6.38;;
17955;SDS011;27666;51.498;11.966;2023-06-10T13:34:07;7.75;;;6.53;;
17955;SDS011;27666;51.498;11.966;2023-06-10T13:36:53;8.75;;;6.15;;
17955;SDS011;27666;51.498;11.966;2023-06-10T13:39:39;7.57;;;5.78;;
17955;SDS011;27666;51.498;11.966;2023-06-10T13:42:27;6.60;;;5.50;;
17955;SDS011;27666;51.498;11.966;2023-06-10T13:45:14;6.07;;;5.45;;
17955;SDS011;27666;51.498;11.966;2023-06-10T13:48:00;6.53;;;5.93;;
17955;SDS011;27666;51.498;11.966;2023-06-10T13:50:49;9.27;;;5.53;;
17955;SDS011;27666;51.498;11.966;2023-06-10T13:53:35;6.68;;;5.80;;
17955;SDS011;27666;51.498;11.966;2023-06-10T13:56:22;9.63;;;6.88;;
17955;SDS011;27666;51.498;11.966;2023-06-10T13:59:10;7.15;;;6.45;;
17955;SDS011;27666;51.498;11.966;2023-06-10T14:01:57;12.40;;;7.00;;
17955;SDS011;27666;51.498;11.966;2023-06-10T14:04:44;11.43;;;6.78;;
17955;SDS011;27666;51.498;11.966;2023-06-10T14:07:31;11.20;;;6.97;;
17955;SDS011;27666;51.498;11.966;2023-06-10T14:10:18;9.95;;;7.07;;
17955;SDS011;27666;51.498;11.966;2023-06-10T14:13:07;8.35;;;6.22;;
17955;SDS011;27666;51.498;11.966;2023-06-10T14:15:55;12.38;;;6.28;;
17955;SDS011;27666;51.498;11.966;2023-06-10T14:18:42;6.20;;;5.60;;
17955;SDS011;27666;51.498;11.966;2023-06-10T14:21:29;7.70;;;6.70;;
17955;SDS011;27666;51.498;11.966;2023-06-10T14:24:15;7.97;;;6.05;;
17955;SDS011;27666;51.498;11.966;2023-06-10T14:27:02;7.22;;;6.53;;
17955;SDS011;27666;51.498;11.966;2023-06-10T14:29:49;8.23;;;6.70;;
17955;SDS011;27666;51.498;11.966;2023-06-10T14:32:37;8.48;;;6.65;;
17955;SDS011;27666;51.498;11.966;2023-06-10T14:35:23;8.80;;;6.80;;
17955;SDS011;27666;51.498;11.966;2023-06-10T14:38:10;9.10;;;5.82;;
17955;SDS011;27666;51.498;11.966;2023-06-10T14:40:56;7.15;;;6.40;;
17955;SDS011;27666;51.498;11.966;2023-06-10T14:43:43;6.78;;;5.90;;
17955;SDS011;27666;51.498;11.966;2023-06-10T14:46:30;7.05;;;6.35;;
17955;SDS011;27666;51.498;11.966;2023-06-10T14:49:17;8.23;;;6.53;;
17955;SDS011;27666;51.498;11.966;2023-06-10T14:52:04;7.80;;;6.70;;
17955;SDS011;27666;51.498;11.966;2023-06-10T14:54:50;10.00;;;7.10;;
17955;SDS011;27666;51.498;11.966;2023-06-10T14:57:37;8.60;;;7.32;;
17955;SDS011;27666;51.498;11.966;2023-06-10T15:00:23;9.60;;;8.13;;
17955;SDS011;27666;51.498;11.966;2023-06-10T15:03:11;9.38;;;7.40;;
17955;SDS011;27666;51.498;11.966;2023-06-10T15:05:59;10.20;;;7.50;;
17955;SDS011;27666;51.498;11.966;2023-06-10T15:08:46;11.52;;;7.45;;
17955;SDS011;27666;51.498;11.966;2023-06-10T15:11:34;8.30;;;7.40;;
17955;SDS011;27666;51.498;11.966;2023-06-10T15:14:21;8.70;;;7.80;;
17955;SDS011;27666;51.498;11.966;2023-06-10T15:17:07;9.23;;;7.38;;
17955;SDS011;27666;51.498;11.966;2023-06-10T15:19:54;7.28;;;6.53;;
17955;SDS011;27666;51.498;11.966;2023-06-10T15:22:41;8.00;;;7.20;;
17955;SDS011;27666;51.498;11.966;2023-06-10T15:25:28;7.78;;;6.65;;
17955;SDS011;27666;51.498;11.966;2023-06-10T15:28:16;8.32;;;6.40;;
17955;SDS011;27666;51.498;11.966;2023-06-10T15:31:03;8.43;;;6.28;;
17955;SDS011;27666;51.498;11.966;2023-06-10T15:33:50;6.53;;;5.53;;
17955;SDS011;27666;51.498;11.966;2023-06-10T15:36:36;7.68;;;5.53;;
17955;SDS011;27666;51.498;11.966;2023-06-10T15:39:24;8.45;;;6.47;;
17955;SDS011;27666;51.498;11.966;2023-06-10T15:42:12;6.95;;;5.93;;
17955;SDS011;27666;51.498;11.966;2023-06-10T15:44:58;14.93;;;9.52;;
17955;SDS011;27666;51.498;11.966;2023-06-10T15:47:45;19.50;;;13.10;;
17955;SDS011;27666;51.498;11.966;2023-06-10T15:50:31;8.40;;;6.55;;
17955;SDS011;27666;51.498;11.966;2023-06-10T15:53:18;7.88;;;5.60;;
17955;SDS011;27666;51.498;11.966;2023-06-10T15:56:06;7.97;;;6.53;;
17955;SDS011;27666;51.498;11.966;2023-06-10T15:58:52;8.77;;;5.90;;
17955;SDS011;27666;51.498;11.966;2023-06-10T16:01:39;7.82;;;6.18;;
17955;SDS011;27666;51.498;11.966;2023-06-10T16:04:26;8.38;;;5.50;;
17955;SDS011;27666;51.498;11.966;2023-06-10T16:07:12;7.78;;;6.10;;
17955;SDS011;27666;51.498;11.966;2023-06-10T16:09:59;7.60;;;6.43;;
17955;SDS011;27666;51.498;11.966;2023-06-10T16:12:46;7.65;;;6.15;;
17955;SDS011;27666;51.498;11.966;2023-06-10T16:15:33;7.18;;;6.10;;
17955;SDS011;27666;51.498;11.966;2023-06-10T16:18:19;8.80;;;6.57;;
17955;SDS011;27666;51.498;11.966;2023-06-10T16:21:06;9.25;;;6.93;;
17955;SDS011;27666;51.498;11.966;2023-06-10T16:23:52;8.57;;;7.03;;
17955;SDS011;27666;51.498;11.966;2023-06-10T16:26:39;9.02;;;6.35;;
17955;SDS011;27666;51.498;11.966;2023-06-10T16:29:27;8.70;;;6.38;;
17955;SDS011;27666;51.498;11.966;2023-06-10T16:32:13;6.97;;;6.28;;
17955;SDS011;27666;51.498;11.966;2023-06-10T16:34:59;8.43;;;6.93;;